Rincon, GA (31326)

3:58 PM EDT on May 24, 2017 (GMT -0400)
Walden Enterprises | | Change Station
Active Advisory: Tornado Watch

Elev 60 ft 32.28 °N, 81.24 °W | Updated 53 seconds ago

Overcast
Overcast
71.2 °F
Feels Like 71.2 °F
N
2.7
Wind Variable Wind from SE

Today
High -- | Low -- °F
--% Chance of Precip.
Yesterday
High -- | Low -- °F
Precip. -- in
Pressure 29.59 in
Visibility 10.0 miles
Clouds Few 600 ft
Scattered Clouds 8000 ft
Mostly Cloudy 12000 ft
Overcast 21000 ft
Dew Point 69 °F
Humidity 92%
Rainfall 0.46 in
Snow Depth Not available.
6:21 AM 8:22 PM
Waning Crescent, 2% visible
METAR KSAV 241953Z 15010KT 10SM FEW006 SCT080 BKN120 OVC210 23/20 A2959 RMK AO2 RAE20 SLP020 CB DSNT NE P0007 T02330200 $
Pressure 29.59 in
Visibility 10.0 miles
Clouds Few 600 ft
Scattered Clouds 8000 ft
Mostly Cloudy 12000 ft
Overcast 21000 ft
Dew Point 69 °F
Humidity 92%
Rainfall 0.46 in
Snow Depth Not available.
6:21 AM 8:22 PM
Waning Crescent, 2% visible
METAR KSAV 241953Z 15010KT 10SM FEW006 SCT080 BKN120 OVC210 23/20 A2959 RMK AO2 RAE20 SLP020 CB DSNT NE P0007 T02330200 $

Get Your Daily Forecast Email!

Thanks for signing up!

Be on the lookout for a verification email in your inbox.

You'll start receiving severe weather alerts in your inbox..

×

10-Day Weather Forecast

Almanac

Astronomy

May. 24, 2017 Rise Set
Actual Time
Civil Twilight
Nautical Twilight
Astronomical Twilight
Moon
Length of Visible Light
Length of Day
Tomorrow will be .
, % of the Moon is Illuminated

Today's Extremes

State Highs State Lows

Community

WunderPhotos

Category 6

Welcome to Category 6. This is the collective home for Weather Underground's featured writeups by Dr. Jeff Masters (right), Bob Henson (left), Chris Burt, and other regular contributors.

Nearby

Air Quality

  Air Quality AQ Index Pollutant
Not available.

Snow Depth

Station Depth Elevation

Earthquake Activity

City Distance Mag. Time & Date
Minimum magnitude displayed is 2.5.

Coastal Water Temperatures

Place Temperature

Stations

Nearby Weather Stations

Station Location Temp. Windchill Dew Point Humidity Wind Precip. Elev Updated Type
                   

Watches & Warnings

Tornado Watch
Issued: 3:47 PM EDT May. 24, 2017 – National Weather Service


Tornado Watch 263 remains valid until 6 PM EDT this evening for
the following areas

In Georgia this watch includes 11 counties

In southeast Georgia

Bryan Bulloch Candler
Effingham Evans Jenkins
Liberty long McIntosh
Screven Tattnall

In South Carolina this watch includes 2 counties

In southeast South Carolina

Allendale Hampton

This includes the cities of Allendale, Claxton, Darien, Estill,
Fairfax, Fort Stewart, Glennville, Hampton, Hinesville, Ludowici,
Metter, Millen, Pembroke, Reidsville, Richmond Hill, Rincon,
Springfield, Statesboro, Sycamore, Sylvania, Varnville,
and Yemassee.